createdAt,value
2019-03-23T00:00:03.014Z,15.90
2019-03-23T00:01:13.860Z,14.95
2019-03-23T00:02:18.314Z,13.53
2019-03-23T00:03:23.234Z,14.05
2019-03-23T00:04:28.096Z,15.18
2019-03-23T00:05:32.620Z,14.07
2019-03-23T00:06:37.126Z,14.33
2019-03-23T00:07:41.899Z,16.82
2019-03-23T00:08:46.924Z,13.90
2019-03-23T00:09:51.639Z,12.65
2019-03-23T00:10:56.008Z,18.42
2019-03-23T00:12:00.741Z,15.83
2019-03-23T00:13:05.699Z,14.58
2019-03-23T00:14:10.497Z,21.50
2019-03-23T00:15:15.750Z,11.83
2019-03-23T00:16:20.268Z,12.18
2019-03-23T00:17:25.284Z,16.20
2019-03-23T00:18:29.655Z,13.08
2019-03-23T00:19:34.194Z,13.90
2019-03-23T00:20:38.875Z,11.50
2019-03-23T00:21:43.474Z,15.68
2019-03-23T00:22:47.912Z,14.50
2019-03-23T00:23:52.341Z,15.15
2019-03-23T00:24:56.947Z,16.00
2019-03-23T00:26:02.303Z,11.73
2019-03-23T00:27:06.753Z,15.58
2019-03-23T00:28:11.188Z,13.62
2019-03-23T00:29:15.871Z,12.78
2019-03-23T00:30:20.617Z,15.28
2019-03-23T00:31:24.977Z,16.23
2019-03-23T00:32:29.425Z,15.95
2019-03-23T00:33:34.104Z,13.75
2019-03-23T00:34:38.543Z,15.32
2019-03-23T00:35:43.297Z,16.37
2019-03-23T00:36:47.667Z,15.63
2019-03-23T00:37:52.134Z,17.73
2019-03-23T00:38:56.742Z,19.92
2019-03-23T00:40:01.421Z,14.45
2019-03-23T00:41:06.176Z,14.33
2019-03-23T00:42:11.040Z,13.62
2019-03-23T00:43:15.642Z,16.02
2019-03-23T00:44:20.499Z,14.28
2019-03-23T00:45:24.859Z,17.77
2019-03-23T00:46:29.609Z,14.47
2019-03-23T00:47:34.212Z,19.00
2019-03-23T00:48:39.225Z,18.80
2019-03-23T00:49:43.981Z,14.68
2019-03-23T00:50:48.849Z,16.17
2019-03-23T00:51:53.218Z,18.87
2019-03-23T00:52:57.824Z,15.30
2019-03-23T00:54:02.578Z,15.63
2019-03-23T00:55:07.635Z,17.45
2019-03-23T00:56:12.557Z,15.90
2019-03-23T00:57:16.927Z,16.30
2019-03-23T00:58:21.358Z,16.15
2019-03-23T00:59:25.714Z,14.40
2019-03-23T01:00:30.225Z,13.25
2019-03-23T01:01:35.325Z,13.13
2019-03-23T01:02:41.832Z,16.62
2019-03-23T01:03:47.241Z,13.30
2019-03-23T01:04:52.039Z,15.35
2019-03-23T01:05:56.476Z,17.55
2019-03-23T01:07:00.927Z,14.85
2019-03-23T01:08:05.538Z,14.15
2019-03-23T01:09:10.118Z,15.53
2019-03-23T01:10:14.911Z,15.28
2019-03-23T01:11:19.594Z,17.35
2019-03-23T01:12:24.015Z,15.93
2019-03-23T01:16:47.828Z,15.07
2019-03-23T01:17:52.494Z,14.58
2019-03-23T01:18:57.615Z,16.20
2019-03-23T01:20:02.400Z,12.75
2019-03-23T01:21:07.164Z,13.98
2019-03-23T01:22:12.071Z,14.75
2019-03-23T01:23:16.602Z,16.65
2019-03-23T01:24:21.375Z,16.97
2019-03-23T01:25:26.166Z,13.32
2019-03-23T01:26:31.052Z,13.15
2019-03-23T01:27:35.604Z,14.15
2019-03-23T01:28:40.373Z,15.58
2019-03-23T01:29:44.750Z,15.28
2019-03-23T01:30:49.817Z,11.48
2019-03-23T01:31:54.835Z,13.78
2019-03-23T01:32:59.570Z,16.27
2019-03-23T01:34:04.092Z,14.53
2019-03-23T01:35:09.402Z,12.50
2019-03-23T01:36:14.262Z,12.80
2019-03-23T01:37:19.039Z,14.28
2019-03-23T01:38:23.682Z,13.22
2019-03-23T01:39:29.050Z,14.73
2019-03-23T01:40:33.840Z,13.83
2019-03-23T01:41:38.218Z,16.65
2019-03-23T01:42:42.961Z,12.68
2019-03-23T01:43:47.446Z,13.62
2019-03-23T01:44:52.240Z,13.58
2019-03-23T01:45:56.999Z,12.60
2019-03-23T01:47:01.746Z,14.25
2019-03-23T01:48:07.066Z,17.85
2019-03-23T01:49:11.627Z,13.32
2019-03-23T01:50:16.155Z,14.85
2019-03-23T01:51:20.678Z,15.30
2019-03-23T01:52:25.493Z,14.03
2019-03-23T01:53:30.656Z,13.03
2019-03-23T01:54:35.106Z,13.70
2019-03-23T01:55:39.866Z,13.30
2019-03-23T01:56:44.592Z,11.80
2019-03-23T01:57:49.347Z,14.58
2019-03-23T01:58:53.820Z,13.50
2019-03-23T01:59:58.656Z,17.55
2019-03-23T02:01:03.177Z,13.10
2019-03-23T02:02:07.698Z,16.23
2019-03-23T02:03:12.318Z,14.43
2019-03-23T02:04:17.082Z,14.07
2019-03-23T02:05:21.770Z,16.52
2019-03-23T02:06:26.938Z,12.47
2019-03-23T02:07:31.580Z,17.55
2019-03-23T02:08:36.218Z,13.10
2019-03-23T02:09:40.581Z,15.80
2019-03-23T02:10:45.242Z,13.08
2019-03-23T02:11:49.927Z,12.88
2019-03-23T02:12:54.632Z,16.48
2019-03-23T02:13:59.070Z,16.50
2019-03-23T02:15:03.593Z,15.85
2019-03-23T02:16:08.101Z,14.90
2019-03-23T02:17:12.714Z,18.05
2019-03-23T02:18:17.165Z,22.17
2019-03-23T02:19:21.606Z,14.68
2019-03-23T02:20:26.046Z,20.75
2019-03-23T02:21:30.724Z,13.38
2019-03-23T02:22:35.416Z,16.02
2019-03-23T02:23:39.797Z,17.10
2019-03-23T02:24:44.162Z,14.35
2019-03-23T02:25:48.604Z,15.43
2019-03-23T02:26:53.076Z,13.55
2019-03-23T02:27:57.776Z,14.13
2019-03-23T02:29:02.179Z,13.83
2019-03-23T02:30:06.955Z,15.48
2019-03-23T02:31:11.966Z,18.55
2019-03-23T02:32:16.705Z,13.62
2019-03-23T02:33:21.286Z,14.23
2019-03-23T02:34:25.923Z,14.90
2019-03-23T02:35:30.414Z,13.43
2019-03-23T02:36:34.968Z,15.32
2019-03-23T02:37:39.812Z,13.20
2019-03-23T02:38:44.471Z,14.33
2019-03-23T02:39:48.916Z,15.20
2019-03-23T02:40:53.374Z,14.33
2019-03-23T02:41:58.114Z,13.93
2019-03-23T02:43:02.648Z,14.78
2019-03-23T02:44:07.168Z,15.90
2019-03-23T02:45:12.568Z,14.47
2019-03-23T02:46:16.947Z,17.12
2019-03-23T02:47:22.137Z,12.15
2019-03-23T02:48:26.674Z,14.38
2019-03-23T02:49:31.125Z,12.13
2019-03-23T02:50:35.849Z,13.50
2019-03-23T02:51:40.263Z,15.85
2019-03-23T02:52:44.630Z,12.65
2019-03-23T02:53:49.337Z,14.85
2019-03-23T02:54:54.104Z,12.95
2019-03-23T02:55:59.111Z,15.45
2019-03-23T02:57:03.725Z,14.58
2019-03-23T02:58:08.463Z,14.50
2019-03-23T02:59:12.977Z,12.73
2019-03-23T03:00:17.617Z,14.58
2019-03-23T03:01:22.309Z,17.48
2019-03-23T03:02:27.020Z,14.20
2019-03-23T03:03:31.720Z,12.73
2019-03-23T03:04:36.252Z,13.15
2019-03-23T03:05:40.701Z,14.78
2019-03-23T03:06:45.491Z,16.40
2019-03-23T03:07:50.179Z,13.35
2019-03-23T03:08:54.877Z,15.10
2019-03-23T03:09:59.398Z,12.25
2019-03-23T03:11:04.539Z,16.07
2019-03-23T03:12:08.977Z,14.00
2019-03-23T03:13:13.437Z,12.15
2019-03-23T03:14:17.797Z,13.88
2019-03-23T03:15:22.491Z,14.73
2019-03-23T03:16:26.929Z,13.90
2019-03-23T03:17:31.556Z,15.28
2019-03-23T03:18:36.005Z,12.82
2019-03-23T03:19:40.618Z,16.17
2019-03-23T03:20:45.230Z,15.18
2019-03-23T03:21:49.600Z,17.23
2019-03-23T03:22:54.367Z,14.33
2019-03-23T03:23:58.745Z,17.00
2019-03-23T03:25:03.427Z,14.75
2019-03-23T03:26:07.944Z,13.48
2019-03-23T03:27:12.378Z,15.30
2019-03-23T03:28:17.242Z,14.25
2019-03-23T03:29:21.625Z,13.05
2019-03-23T03:30:25.992Z,13.15
2019-03-23T03:31:30.383Z,15.28
2019-03-23T03:32:35.147Z,13.05
2019-03-23T03:33:39.747Z,13.20
2019-03-23T03:34:44.121Z,14.28
2019-03-23T03:35:48.665Z,15.03
2019-03-23T03:36:53.399Z,16.52
2019-03-23T03:37:58.310Z,17.57
2019-03-23T03:39:03.286Z,14.80
2019-03-23T03:40:08.048Z,13.88
2019-03-23T03:41:12.499Z,13.20
2019-03-23T03:42:16.961Z,14.40
2019-03-23T03:43:21.692Z,15.98
2019-03-23T03:44:26.549Z,11.65
2019-03-23T03:45:31.050Z,18.87
2019-03-23T03:46:35.569Z,13.20
2019-03-23T03:47:41.415Z,15.35
2019-03-23T03:48:46.118Z,16.27
2019-03-23T03:49:51.045Z,15.93
2019-03-23T03:50:56.128Z,13.75
2019-03-23T03:52:00.580Z,17.55
2019-03-23T03:53:05.158Z,17.50
2019-03-23T03:54:09.541Z,14.73
2019-03-23T03:55:14.001Z,13.65
2019-03-23T03:56:18.446Z,21.55
2019-03-23T03:57:23.133Z,12.85
2019-03-23T03:58:27.596Z,15.13
2019-03-23T03:59:32.427Z,16.97
2019-03-23T04:00:37.033Z,18.98
2019-03-23T04:01:41.474Z,16.20
2019-03-23T04:02:46.308Z,13.98
2019-03-23T04:03:50.753Z,14.43
2019-03-23T04:04:55.790Z,14.00
2019-03-23T04:06:00.554Z,14.63
2019-03-23T04:07:05.382Z,17.10
2019-03-23T04:08:11.880Z,14.83
2019-03-23T04:09:16.031Z,15.18
2019-03-23T04:10:20.480Z,12.07
2019-03-23T04:11:25.203Z,15.40
2019-03-23T04:12:29.642Z,15.85
2019-03-23T04:13:34.519Z,13.48
2019-03-23T04:14:38.909Z,14.75
2019-03-23T04:15:43.367Z,13.50
2019-03-23T04:16:48.114Z,14.03
2019-03-23T04:17:52.686Z,13.78
2019-03-23T04:18:57.072Z,17.20
2019-03-23T04:20:01.525Z,16.93
2019-03-23T04:21:06.509Z,12.47
2019-03-23T04:22:10.954Z,14.30
2019-03-23T04:23:15.356Z,15.70
2019-03-23T04:24:19.895Z,14.47
2019-03-23T04:25:24.270Z,15.08
2019-03-23T04:26:28.656Z,15.85
2019-03-23T04:27:33.441Z,17.27
2019-03-23T04:28:38.138Z,17.25
2019-03-23T04:29:42.597Z,14.75
2019-03-23T04:30:47.750Z,16.25
2019-03-23T04:31:52.182Z,16.80
2019-03-23T04:32:56.934Z,15.00
2019-03-23T04:34:01.722Z,16.70
2019-03-23T04:35:07.674Z,16.95
2019-03-23T04:36:12.110Z,15.78
2019-03-23T04:37:16.789Z,18.60
2019-03-23T04:38:22.960Z,18.50
2019-03-23T04:39:27.661Z,20.48
2019-03-23T04:40:32.019Z,15.95
2019-03-23T04:41:36.464Z,15.98
2019-03-23T04:42:40.828Z,13.95
2019-03-23T04:43:45.430Z,19.82
2019-03-23T04:44:49.883Z,17.00
2019-03-23T04:45:55.150Z,14.03
2019-03-23T04:46:59.760Z,18.00
2019-03-23T04:48:04.455Z,20.05
2019-03-23T04:49:08.903Z,16.65
2019-03-23T04:50:13.850Z,16.12
2019-03-23T04:51:18.687Z,16.85
2019-03-23T04:52:23.114Z,16.57
2019-03-23T04:53:27.979Z,14.05
2019-03-23T04:54:32.362Z,15.38
2019-03-23T04:55:37.047Z,18.75
2019-03-23T04:56:41.416Z,13.78
2019-03-23T04:57:45.855Z,18.55
2019-03-23T04:58:50.216Z,14.60
2019-03-23T04:59:54.666Z,14.13
2019-03-23T05:00:59.280Z,14.28
2019-03-23T05:02:03.851Z,20.35
2019-03-23T05:03:08.542Z,17.95
2019-03-23T05:04:13.598Z,16.62
2019-03-23T05:05:18.106Z,19.82
2019-03-23T05:06:22.558Z,15.95
2019-03-23T05:07:27.052Z,15.03
2019-03-23T05:08:33.659Z,18.85
2019-03-23T05:09:37.771Z,16.32
2019-03-23T05:10:42.216Z,17.87
2019-03-23T05:11:47.022Z,21.30
2019-03-23T05:12:51.706Z,16.57
2019-03-23T05:13:56.367Z,18.12
2019-03-23T05:15:00.836Z,16.32
2019-03-23T05:16:05.353Z,18.55
2019-03-23T05:17:09.805Z,18.40
2019-03-23T05:18:14.483Z,19.40
2019-03-23T05:19:19.175Z,16.70
2019-03-23T05:20:31.235Z,18.60
2019-03-23T05:21:35.605Z,17.70
2019-03-23T05:22:40.034Z,18.50
2019-03-23T05:23:45.865Z,20.92
2019-03-23T05:24:50.382Z,16.27
2019-03-23T05:25:54.752Z,18.77
2019-03-23T05:26:59.113Z,17.07
2019-03-23T05:28:03.632Z,14.10
2019-03-23T05:29:08.639Z,16.02
2019-03-23T05:30:13.188Z,16.77
2019-03-23T05:31:18.421Z,16.27
2019-03-23T05:32:23.617Z,15.78
2019-03-23T05:33:28.057Z,21.82
2019-03-23T05:34:32.446Z,17.62
2019-03-23T05:35:36.944Z,15.38
2019-03-23T05:36:41.467Z,15.50
2019-03-23T05:37:46.338Z,15.20
2019-03-23T05:38:51.195Z,15.18
2019-03-23T05:39:55.659Z,14.58
2019-03-23T05:41:00.363Z,15.38
2019-03-23T05:42:05.174Z,16.48
2019-03-23T05:44:35.366Z,19.25
2019-03-23T05:45:40.083Z,16.30
2019-03-23T05:46:44.454Z,19.65
2019-03-23T05:47:48.919Z,15.18
2019-03-23T05:48:53.925Z,16.95
2019-03-23T05:49:58.401Z,16.77
2019-03-23T05:51:02.801Z,16.40
2019-03-23T05:52:07.385Z,17.40
2019-03-23T05:53:11.895Z,17.05
2019-03-23T05:54:16.266Z,20.95
2019-03-23T05:55:20.715Z,17.02
2019-03-23T05:56:25.651Z,15.75
2019-03-23T05:57:30.084Z,21.85
2019-03-23T05:58:34.840Z,15.72
2019-03-23T05:59:39.449Z,17.23
2019-03-23T06:00:43.891Z,19.87
2019-03-23T06:01:48.259Z,17.52
2019-03-23T06:02:52.694Z,15.25
2019-03-23T06:03:57.311Z,16.93
2019-03-23T06:05:01.760Z,16.15
2019-03-23T06:06:06.274Z,16.93
2019-03-23T06:07:10.649Z,16.12
2019-03-23T06:08:15.668Z,17.60
2019-03-23T06:09:20.294Z,16.17
2019-03-23T06:10:24.917Z,16.62
2019-03-23T06:11:29.538Z,18.20
2019-03-23T06:12:34.973Z,15.60
2019-03-23T06:13:39.431Z,18.32
2019-03-23T06:14:43.912Z,19.25
2019-03-23T06:15:48.311Z,16.00
2019-03-23T06:16:52.990Z,16.37
2019-03-23T06:17:57.358Z,15.58
2019-03-23T06:19:01.811Z,15.60
2019-03-23T06:20:06.919Z,17.25
2019-03-23T06:21:11.374Z,17.90
2019-03-23T06:22:16.243Z,24.15
2019-03-23T06:23:20.688Z,25.70
2019-03-23T06:24:25.309Z,18.92
2019-03-23T06:25:29.931Z,24.05
2019-03-23T06:26:34.707Z,23.50
2019-03-23T06:27:39.229Z,17.75
2019-03-23T06:28:43.594Z,17.42
2019-03-23T06:29:47.963Z,16.42
2019-03-23T06:30:52.412Z,18.67
2019-03-23T06:31:56.938Z,16.57
2019-03-23T06:33:01.680Z,19.37
2019-03-23T06:34:06.544Z,18.77
2019-03-23T06:35:11.425Z,19.52
2019-03-23T06:36:16.216Z,15.35
2019-03-23T06:37:20.659Z,17.80
2019-03-23T06:38:25.424Z,15.72
2019-03-23T06:39:29.931Z,17.60
2019-03-23T06:40:34.736Z,17.23
2019-03-23T06:41:39.294Z,14.55
2019-03-23T06:42:43.751Z,20.35
2019-03-23T06:43:49.030Z,18.82
2019-03-23T06:44:53.405Z,16.97
2019-03-23T06:45:58.152Z,18.23
2019-03-23T06:47:03.014Z,15.45
2019-03-23T06:48:07.610Z,17.75
2019-03-23T06:49:12.570Z,17.30
2019-03-23T06:50:17.116Z,18.87
2019-03-23T06:51:21.824Z,21.73
2019-03-23T06:52:26.643Z,18.70
2019-03-23T06:53:31.102Z,22.80
2019-03-23T06:54:35.567Z,21.97
2019-03-23T06:55:40.227Z,19.35
2019-03-23T06:56:44.924Z,21.27
2019-03-23T06:57:49.442Z,21.65
2019-03-23T06:58:54.483Z,22.10
2019-03-23T06:59:59.244Z,25.00
2019-03-23T07:01:03.810Z,23.75
2019-03-23T07:02:08.306Z,20.27
2019-03-23T07:03:13.133Z,21.17
2019-03-23T07:04:17.705Z,20.32
2019-03-23T07:05:22.252Z,22.52
2019-03-23T07:06:27.050Z,20.88
2019-03-23T07:07:31.420Z,22.65
2019-03-23T07:08:36.036Z,20.75
2019-03-23T07:09:40.483Z,18.48
2019-03-23T07:10:45.012Z,21.48
2019-03-23T07:11:49.712Z,18.25
2019-03-23T07:12:54.151Z,17.25
2019-03-23T07:13:58.518Z,19.27
2019-03-23T07:15:03.052Z,22.32
2019-03-23T07:16:07.752Z,20.90
2019-03-23T07:17:12.296Z,24.45
2019-03-23T07:18:17.363Z,20.62
2019-03-23T07:19:22.071Z,22.45
2019-03-23T07:20:26.583Z,20.37
2019-03-23T07:21:31.290Z,19.45
2019-03-23T07:22:36.074Z,16.20
2019-03-23T07:23:40.611Z,21.85
2019-03-23T07:24:45.229Z,16.82
2019-03-23T07:25:50.023Z,20.27
2019-03-23T07:26:54.558Z,22.55
2019-03-23T07:27:59.376Z,19.45
2019-03-23T07:29:04.296Z,17.48
2019-03-23T07:30:10.818Z,19.70
2019-03-23T07:31:15.558Z,19.25
2019-03-23T07:32:20.092Z,22.90
2019-03-23T07:33:24.615Z,20.68
2019-03-23T07:34:29.393Z,18.75
2019-03-23T07:35:34.636Z,19.57
2019-03-23T07:36:39.424Z,18.55
2019-03-23T07:37:43.947Z,18.70
2019-03-23T07:38:48.687Z,18.23
2019-03-23T07:39:53.064Z,17.80
2019-03-23T07:40:57.804Z,17.00
2019-03-23T07:42:02.665Z,23.20
2019-03-23T07:43:07.029Z,19.00
2019-03-23T07:44:11.480Z,17.23
2019-03-23T07:45:16.697Z,19.05
2019-03-23T07:46:21.644Z,16.55
2019-03-23T07:47:26.160Z,13.58
2019-03-23T07:48:30.603Z,16.35
2019-03-23T07:49:35.301Z,14.93
2019-03-23T07:50:39.753Z,15.98
2019-03-23T07:51:44.194Z,15.10
2019-03-23T07:52:48.566Z,16.87
2019-03-23T07:53:53.246Z,17.42
2019-03-23T07:55:00.576Z,17.98
2019-03-23T07:56:05.204Z,19.87
2019-03-23T07:57:09.653Z,18.20
2019-03-23T07:58:14.022Z,14.75
2019-03-23T07:59:18.392Z,18.57
2019-03-23T08:00:23.015Z,19.25
2019-03-23T08:01:27.397Z,15.93
2019-03-23T08:02:32.012Z,17.27
2019-03-23T08:03:36.458Z,15.63
2019-03-23T08:04:41.280Z,20.05
2019-03-23T08:05:45.613Z,18.48
2019-03-23T08:06:50.224Z,18.42
2019-03-23T08:07:55.163Z,18.98
2019-03-23T08:08:59.777Z,18.60
2019-03-23T08:10:04.226Z,22.50
2019-03-23T08:11:08.846Z,17.27
2019-03-23T08:12:13.291Z,19.07
2019-03-23T08:13:18.044Z,17.45
2019-03-23T08:14:22.685Z,16.12
2019-03-23T08:15:27.381Z,17.55
2019-03-23T08:16:31.841Z,16.25
2019-03-23T08:17:36.987Z,17.85
2019-03-23T08:18:42.314Z,16.75
2019-03-23T08:19:47.145Z,15.88
2019-03-23T08:20:51.594Z,18.67
2019-03-23T08:21:56.471Z,16.12
2019-03-23T08:23:01.067Z,21.30
2019-03-23T08:24:05.761Z,20.25
2019-03-23T08:25:10.221Z,17.25
2019-03-23T08:26:14.693Z,17.27
2019-03-23T08:27:19.394Z,17.00
2019-03-23T08:28:23.899Z,18.40
2019-03-23T08:29:28.775Z,15.93
2019-03-23T08:30:33.270Z,16.60
2019-03-23T08:31:38.207Z,19.92
2019-03-23T08:32:42.880Z,21.15
2019-03-23T08:33:47.361Z,21.00
2019-03-23T08:34:51.856Z,21.07
2019-03-23T08:35:56.393Z,17.95
2019-03-23T08:37:02.147Z,19.62
2019-03-23T08:38:06.701Z,20.37
2019-03-23T08:39:11.161Z,16.48
2019-03-23T08:40:15.686Z,18.60
2019-03-23T08:41:20.306Z,17.67
2019-03-23T08:42:25.317Z,19.07
2019-03-23T08:43:29.952Z,19.87
2019-03-23T08:44:34.477Z,22.87
2019-03-23T08:45:38.975Z,22.45
2019-03-23T08:46:43.448Z,20.97
2019-03-23T08:47:47.975Z,21.87
2019-03-23T08:48:52.534Z,23.02
2019-03-23T08:49:59.601Z,18.95
2019-03-23T08:51:03.562Z,17.35
2019-03-23T08:52:08.413Z,20.23
2019-03-23T08:53:12.788Z,22.67
2019-03-23T08:54:17.238Z,20.23
2019-03-23T08:55:22.132Z,21.30
2019-03-23T08:56:26.727Z,16.27
2019-03-23T08:57:31.385Z,15.88
2019-03-23T08:58:33.787Z,18.82
2019-03-23T08:59:38.158Z,22.75
2019-03-23T09:00:42.535Z,18.07
2019-03-23T09:01:46.979Z,22.98
2019-03-23T09:02:51.946Z,19.87
2019-03-23T09:03:56.672Z,23.98
2019-03-23T09:05:01.948Z,22.48
2019-03-23T09:06:06.708Z,20.80
2019-03-23T09:07:11.614Z,22.70
2019-03-23T09:08:18.462Z,23.52
2019-03-23T09:09:22.233Z,25.05
2019-03-23T09:10:27.021Z,20.02
2019-03-23T09:11:31.638Z,23.52
2019-03-23T09:12:36.422Z,20.68
2019-03-23T09:13:41.085Z,19.75
2019-03-23T09:14:45.415Z,18.60
2019-03-23T09:15:49.874Z,26.70
2019-03-23T09:16:54.500Z,23.15
2019-03-23T09:17:58.891Z,20.95
2019-03-23T09:19:03.420Z,25.85
2019-03-23T09:20:09.024Z,23.80
2019-03-23T09:21:13.795Z,23.40
2019-03-23T09:22:18.819Z,26.33
2019-03-23T09:23:23.672Z,22.22
2019-03-23T09:24:28.134Z,26.40
2019-03-23T09:25:32.590Z,23.67
2019-03-23T09:26:37.053Z,20.65
2019-03-23T09:27:41.780Z,22.98
2019-03-23T09:28:46.512Z,24.87
2019-03-23T09:29:51.304Z,24.72
2019-03-23T09:30:55.762Z,22.48
2019-03-23T09:32:00.509Z,21.73
2019-03-23T09:33:05.018Z,28.50
2019-03-23T09:34:09.473Z,21.75
2019-03-23T09:35:14.044Z,23.73
2019-03-23T09:36:23.059Z,24.23
2019-03-23T09:37:25.402Z,25.05
2019-03-23T09:38:30.304Z,25.52
2019-03-23T09:39:35.229Z,30.23
2019-03-23T09:40:40.060Z,25.57
2019-03-23T09:41:44.813Z,25.17
2019-03-23T09:42:49.350Z,29.90
2019-03-23T09:43:53.855Z,28.23
2019-03-23T09:44:58.392Z,23.87
2019-03-23T09:46:05.926Z,25.85
2019-03-23T09:47:10.712Z,29.42
2019-03-23T09:48:15.176Z,26.73
2019-03-23T09:49:22.015Z,28.67
2019-03-23T09:50:25.964Z,28.20
2019-03-23T09:51:31.114Z,25.35
2019-03-23T09:52:35.944Z,27.42
2019-03-23T09:53:40.627Z,30.43
2019-03-23T09:54:45.485Z,23.62
2019-03-23T09:55:50.173Z,26.80
2019-03-23T09:56:55.245Z,24.75
2019-03-23T09:58:00.112Z,26.57
2019-03-23T09:59:04.653Z,26.23
2019-03-23T10:00:09.536Z,26.33
2019-03-23T10:01:14.157Z,22.62
2019-03-23T10:02:18.566Z,24.00
2019-03-23T10:03:23.085Z,22.60
2019-03-23T10:04:28.824Z,23.00
2019-03-23T10:05:33.514Z,24.52
2019-03-23T10:06:38.140Z,25.85
2019-03-23T10:07:42.513Z,27.10
2019-03-23T10:08:46.904Z,22.48
2019-03-23T10:09:51.281Z,27.82
2019-03-23T10:10:55.655Z,24.98
2019-03-23T10:12:00.430Z,21.35
2019-03-23T10:13:05.459Z,24.72
2019-03-23T10:14:10.022Z,25.90
2019-03-23T10:15:14.614Z,23.12
2019-03-23T10:16:19.082Z,26.68
2019-03-23T10:17:23.643Z,22.22
2019-03-23T10:18:28.180Z,26.00
2019-03-23T10:19:32.885Z,26.02
2019-03-23T10:20:37.340Z,25.25
2019-03-23T10:21:41.796Z,32.70
2019-03-23T10:22:46.316Z,26.77
2019-03-23T10:23:51.141Z,29.35
2019-03-23T10:24:55.949Z,26.48
2019-03-23T10:26:01.616Z,26.68
2019-03-23T10:27:06.489Z,26.37
2019-03-23T10:28:11.011Z,29.67
2019-03-23T10:29:18.809Z,26.90
2019-03-23T10:30:24.612Z,29.12
2019-03-23T10:31:29.765Z,29.20
2019-03-23T10:32:34.687Z,27.90
2019-03-23T10:33:39.081Z,30.45
2019-03-23T10:34:43.594Z,25.92
2019-03-23T10:35:48.406Z,27.80
2019-03-23T10:36:52.821Z,30.48
2019-03-23T10:37:57.472Z,29.37
2019-03-23T10:39:01.916Z,34.45
2019-03-23T10:40:07.963Z,31.27
2019-03-23T10:41:12.647Z,29.95
2019-03-23T10:42:17.859Z,27.85
2019-03-23T10:43:22.252Z,32.17
2019-03-23T10:44:27.032Z,29.02
2019-03-23T10:45:31.591Z,34.35
2019-03-23T10:46:36.444Z,31.82
2019-03-23T10:47:41.546Z,35.55
2019-03-23T10:48:46.796Z,30.30
2019-03-23T10:49:51.210Z,34.10
2019-03-23T10:50:55.684Z,31.02
2019-03-23T10:52:00.065Z,34.83
2019-03-23T10:53:04.440Z,33.65
2019-03-23T10:54:08.830Z,36.42
2019-03-23T10:55:13.370Z,35.10
2019-03-23T10:56:18.139Z,31.33
2019-03-23T10:57:22.597Z,34.55
2019-03-23T10:58:27.969Z,34.27
2019-03-23T10:59:32.437Z,35.10
2019-03-23T11:00:36.893Z,31.57
2019-03-23T11:01:41.908Z,37.10
2019-03-23T11:02:46.724Z,38.00
2019-03-23T11:03:51.194Z,39.48
2019-03-23T11:04:55.838Z,38.35
2019-03-23T11:06:03.024Z,41.53
2019-03-23T11:07:07.480Z,39.00
2019-03-23T11:08:12.139Z,38.42
2019-03-23T11:09:16.874Z,38.90
2019-03-23T11:10:21.596Z,33.42
2019-03-23T11:11:26.242Z,41.23
2019-03-23T11:12:30.990Z,40.78
2019-03-23T11:13:35.402Z,38.30
2019-03-23T11:14:40.134Z,39.60
2019-03-23T11:15:44.603Z,36.53
2019-03-23T11:16:49.096Z,38.28
2019-03-23T11:17:54.064Z,38.35
2019-03-23T11:18:58.476Z,40.35
2019-03-23T11:20:03.360Z,38.17
2019-03-23T11:21:07.946Z,37.90
2019-03-23T11:22:12.754Z,37.28
2019-03-23T11:23:17.231Z,46.53
2019-03-23T11:24:22.016Z,41.85
2019-03-23T11:25:26.579Z,42.65
2019-03-23T11:26:31.501Z,38.80
2019-03-23T11:27:36.220Z,40.20
2019-03-23T11:28:41.395Z,36.87
2019-03-23T11:29:46.671Z,35.48
2019-03-23T11:30:51.478Z,43.80
2019-03-23T11:31:55.915Z,37.87
2019-03-23T11:33:00.447Z,34.63
2019-03-23T11:34:05.425Z,34.57
2019-03-23T11:35:10.838Z,36.68
2019-03-23T11:36:15.513Z,41.27
2019-03-23T11:37:20.469Z,36.97
2019-03-23T11:38:24.875Z,34.10
2019-03-23T11:39:29.282Z,36.83
2019-03-23T11:40:34.260Z,38.65
2019-03-23T11:41:39.036Z,40.83
2019-03-23T11:42:49.768Z,36.43
2019-03-23T11:43:49.815Z,37.00
2019-03-23T11:44:54.374Z,40.73
2019-03-23T11:45:59.087Z,37.67
2019-03-23T11:47:03.464Z,41.37
2019-03-23T11:48:07.888Z,42.47
2019-03-23T11:49:12.721Z,37.53
2019-03-23T11:50:17.425Z,36.47
2019-03-23T11:51:22.087Z,37.50
2019-03-23T11:52:26.545Z,38.67
2019-03-23T11:53:30.934Z,39.25
2019-03-23T11:54:35.647Z,38.00
2019-03-23T11:55:40.614Z,38.23
2019-03-23T11:56:45.151Z,39.57
2019-03-23T11:57:49.907Z,36.50
2019-03-23T11:58:54.365Z,39.30
2019-03-23T11:59:58.860Z,42.23
2019-03-23T12:01:03.776Z,39.50
2019-03-23T12:02:08.157Z,41.40
2019-03-23T12:03:12.855Z,39.23
2019-03-23T12:04:17.385Z,43.37
2019-03-23T12:05:21.777Z,42.83
2019-03-23T12:06:26.184Z,37.33
2019-03-23T12:07:30.965Z,39.80
2019-03-23T12:08:35.345Z,41.77
2019-03-23T12:09:39.798Z,42.53
2019-03-23T12:10:44.326Z,44.77
2019-03-23T12:11:48.963Z,41.27
2019-03-23T12:12:53.510Z,45.63
2019-03-23T12:13:58.402Z,42.27
2019-03-23T12:15:02.961Z,39.07
2019-03-23T12:16:07.412Z,44.00
2019-03-23T12:17:12.108Z,43.63
2019-03-23T12:18:16.818Z,42.67
2019-03-23T12:19:21.448Z,41.00
2019-03-23T12:20:25.844Z,46.57
2019-03-23T12:21:30.386Z,43.20
2019-03-23T12:22:35.271Z,41.87
2019-03-23T12:23:39.739Z,44.60
2019-03-23T12:24:44.440Z,40.10
2019-03-23T12:25:49.062Z,44.20
2019-03-23T12:26:53.590Z,43.57
2019-03-23T12:27:58.560Z,43.97
2019-03-23T12:29:03.012Z,56.77
2019-03-23T12:30:08.391Z,44.53
2019-03-23T12:31:12.781Z,45.27
2019-03-23T12:32:17.731Z,43.63
2019-03-23T12:33:22.180Z,37.47
2019-03-23T12:34:26.802Z,45.77
2019-03-23T12:35:32.062Z,44.87
2019-03-23T12:36:36.587Z,44.67
2019-03-23T12:37:41.528Z,46.53
2019-03-23T12:38:45.894Z,40.27
2019-03-23T12:39:50.791Z,42.37
2019-03-23T12:40:55.794Z,44.57
2019-03-23T12:42:00.603Z,42.27
2019-03-23T12:43:05.173Z,45.73
2019-03-23T12:44:09.693Z,45.97
2019-03-23T12:45:14.343Z,43.90
2019-03-23T12:46:19.068Z,42.80
2019-03-23T12:47:23.778Z,42.73
2019-03-23T12:48:28.414Z,42.23
2019-03-23T12:49:33.037Z,47.47
2019-03-23T12:50:37.685Z,42.97
2019-03-23T12:51:42.209Z,45.50
2019-03-23T12:52:47.007Z,43.07
2019-03-23T12:53:51.643Z,39.37
2019-03-23T12:54:56.786Z,44.97
2019-03-23T12:56:02.876Z,41.83
2019-03-23T12:57:07.329Z,40.90
2019-03-23T12:58:12.285Z,40.00
2019-03-23T12:59:16.722Z,59.27
2019-03-23T13:00:21.427Z,45.13
2019-03-23T13:01:26.327Z,42.87
2019-03-23T13:02:30.954Z,44.30
2019-03-23T13:03:35.910Z,49.33
2019-03-23T13:04:40.527Z,45.80
2019-03-23T13:05:45.345Z,45.63
2019-03-23T13:06:49.863Z,43.00
2019-03-23T13:07:54.892Z,47.27
2019-03-23T13:08:59.273Z,43.27
2019-03-23T13:10:04.011Z,42.53
2019-03-23T13:11:08.730Z,45.17
2019-03-23T13:12:13.367Z,38.83
2019-03-23T13:13:17.817Z,46.97
2019-03-23T13:14:22.177Z,44.43
2019-03-23T13:15:26.833Z,45.70
2019-03-23T13:16:31.765Z,43.90
2019-03-23T13:17:36.235Z,40.43
2019-03-23T13:18:40.622Z,42.27
2019-03-23T13:19:44.987Z,41.47
2019-03-23T13:20:50.162Z,45.03
2019-03-23T13:21:54.624Z,44.37
2019-03-23T13:22:59.220Z,46.30
2019-03-23T13:24:03.698Z,40.87
2019-03-23T13:25:08.916Z,40.20
2019-03-23T13:26:13.629Z,40.13
2019-03-23T13:27:18.050Z,45.00
2019-03-23T13:28:22.669Z,46.90
2019-03-23T13:29:27.283Z,38.70
2019-03-23T13:30:31.763Z,39.40
2019-03-23T13:31:36.288Z,42.93
2019-03-23T13:32:40.830Z,40.47
2019-03-23T13:33:45.443Z,38.40
2019-03-23T13:34:50.064Z,45.43
2019-03-23T13:35:54.515Z,44.87
2019-03-23T13:36:59.145Z,42.37
2019-03-23T13:38:03.669Z,44.30
2019-03-23T13:39:08.129Z,40.27
2019-03-23T13:40:12.962Z,45.07
2019-03-23T13:41:17.445Z,44.83
2019-03-23T13:42:21.898Z,45.87
2019-03-23T13:43:26.273Z,43.13
2019-03-23T13:44:30.676Z,44.70
2019-03-23T13:45:42.544Z,47.67
2019-03-23T13:46:41.678Z,44.33
2019-03-23T13:47:46.212Z,42.20
2019-03-23T13:48:51.079Z,49.77
2019-03-23T13:49:55.693Z,48.60
2019-03-23T13:51:00.393Z,43.07
2019-03-23T13:52:04.945Z,45.77
2019-03-23T13:53:09.336Z,51.10
2019-03-23T13:54:14.025Z,48.70
2019-03-23T13:55:28.662Z,46.33
2019-03-23T13:56:33.397Z,45.77
2019-03-23T13:57:37.778Z,45.17